sensor_id;sensor_type;location;lat;lon;timestamp;pressure;altitude;pressure_sealevel;temperature;humidity
75208;BME280;63795;55.684;37.864;2023-03-01T00:02:58;99043.59;;;-4.50;56.98
75208;BME280;63795;55.684;37.864;2023-03-01T00:07:59;99042.97;;;-4.56;56.98
75208;BME280;63795;55.684;37.864;2023-03-01T00:12:59;99048.66;;;-4.61;56.43
75208;BME280;63795;55.684;37.864;2023-03-01T00:18:00;99039.56;;;-4.61;57.28
75208;BME280;63795;55.684;37.864;2023-03-01T00:23:00;99033.22;;;-4.62;56.41
75208;BME280;63795;55.684;37.864;2023-03-01T00:28:01;99025.25;;;-4.63;56.89
75208;BME280;63795;55.684;37.864;2023-03-01T00:33:01;99028.34;;;-4.73;56.84
75208;BME280;63795;55.684;37.864;2023-03-01T00:38:02;99023.81;;;-4.78;56.32
75208;BME280;63795;55.684;37.864;2023-03-01T00:43:04;99029.47;;;-4.83;56.95
75208;BME280;63795;55.684;37.864;2023-03-01T00:48:04;99022.97;;;-4.87;56.92
75208;BME280;63795;55.684;37.864;2023-03-01T00:53:05;99028.50;;;-4.87;57.30
75208;BME280;63795;55.684;37.864;2023-03-01T00:58:06;99022.69;;;-4.94;57.06
75208;BME280;63795;55.684;37.864;2023-03-01T01:03:06;99025.59;;;-4.99;56.58
75208;BME280;63795;55.684;37.864;2023-03-01T01:08:07;99022.34;;;-5.01;57.11
75208;BME280;63795;55.684;37.864;2023-03-01T01:13:07;99029.00;;;-5.02;56.68
75208;BME280;63795;55.684;37.864;2023-03-01T01:18:08;99022.34;;;-5.01;57.07
75208;BME280;63795;55.684;37.864;2023-03-01T01:23:08;99024.63;;;-5.03;57.44
75208;BME280;63795;55.684;37.864;2023-03-01T01:28:09;99010.66;;;-5.06;57.43
75208;BME280;63795;55.684;37.864;2023-03-01T01:33:09;99022.84;;;-5.07;56.99
75208;BME280;63795;55.684;37.864;2023-03-01T01:38:10;99032.59;;;-5.10;57.29
75208;BME280;63795;55.684;37.864;2023-03-01T01:48:22;99027.41;;;-5.11;57.47
75208;BME280;63795;55.684;37.864;2023-03-01T01:53:24;99013.91;;;-5.22;57.71
75208;BME280;63795;55.684;37.864;2023-03-01T01:58:28;99036.81;;;-5.21;57.58
75208;BME280;63795;55.684;37.864;2023-03-01T02:03:31;99031.59;;;-5.23;57.81
75208;BME280;63795;55.684;37.864;2023-03-01T02:08:37;99020.75;;;-5.19;57.74
75208;BME280;63795;55.684;37.864;2023-03-01T02:13:38;99020.06;;;-5.16;57.56
75208;BME280;63795;55.684;37.864;2023-03-01T02:18:40;99034.22;;;-5.18;58.01
75208;BME280;63795;55.684;37.864;2023-03-01T02:23:41;99028.53;;;-5.21;57.89
75208;BME280;63795;55.684;37.864;2023-03-01T02:28:43;99033.22;;;-5.30;58.21
75208;BME280;63795;55.684;37.864;2023-03-01T02:33:45;99037.28;;;-5.36;58.76
75208;BME280;63795;55.684;37.864;2023-03-01T02:38:47;99041.19;;;-5.37;58.68
75208;BME280;63795;55.684;37.864;2023-03-01T02:43:48;99040.50;;;-5.43;58.98
75208;BME280;63795;55.684;37.864;2023-03-01T02:48:51;99046.84;;;-5.42;59.10
75208;BME280;63795;55.684;37.864;2023-03-01T02:54:06;99045.38;;;-5.48;59.33
75208;BME280;63795;55.684;37.864;2023-03-01T02:59:09;99028.63;;;-5.60;59.27
75208;BME280;63795;55.684;37.864;2023-03-01T03:04:13;99033.03;;;-5.59;59.39
75208;BME280;63795;55.684;37.864;2023-03-01T03:09:17;99037.56;;;-5.63;59.52
75208;BME280;63795;55.684;37.864;2023-03-01T03:14:18;99041.91;;;-5.71;60.01
75208;BME280;63795;55.684;37.864;2023-03-01T03:19:19;99044.38;;;-5.69;60.01
75208;BME280;63795;55.684;37.864;2023-03-01T03:24:20;99039.97;;;-5.70;60.28
75208;BME280;63795;55.684;37.864;2023-03-01T03:29:21;99047.41;;;-5.71;60.21
75208;BME280;63795;55.684;37.864;2023-03-01T03:34:21;99045.66;;;-5.75;60.57
75208;BME280;63795;55.684;37.864;2023-03-01T03:39:23;99057.31;;;-5.78;60.79
75208;BME280;63795;55.684;37.864;2023-03-01T03:44:24;99050.34;;;-5.84;60.75
75208;BME280;63795;55.684;37.864;2023-03-01T03:49:24;99065.06;;;-5.89;60.99
75208;BME280;63795;55.684;37.864;2023-03-01T03:54:24;99057.47;;;-5.92;60.96
75208;BME280;63795;55.684;37.864;2023-03-01T03:59:25;99063.91;;;-5.96;61.24
75208;BME280;63795;55.684;37.864;2023-03-01T04:04:25;99052.38;;;-5.98;61.24
75208;BME280;63795;55.684;37.864;2023-03-01T04:09:26;99063.41;;;-5.98;61.36
75208;BME280;63795;55.684;37.864;2023-03-01T04:14:26;99050.78;;;-5.99;61.39
75208;BME280;63795;55.684;37.864;2023-03-01T04:19:27;99057.28;;;-5.95;61.45
75208;BME280;63795;55.684;37.864;2023-03-01T04:24:27;99062.31;;;-5.97;62.06
75208;BME280;63795;55.684;37.864;2023-03-01T04:29:28;99076.72;;;-6.00;61.78
75208;BME280;63795;55.684;37.864;2023-03-01T04:34:29;99091.34;;;-6.00;62.24
75208;BME280;63795;55.684;37.864;2023-03-01T04:39:29;99087.13;;;-5.97;61.99
75208;BME280;63795;55.684;37.864;2023-03-01T04:44:30;99093.44;;;-5.97;62.10
75208;BME280;63795;55.684;37.864;2023-03-01T04:49:30;99092.00;;;-5.94;62.67
75208;BME280;63795;55.684;37.864;2023-03-01T04:54:31;99099.94;;;-5.93;62.29
75208;BME280;63795;55.684;37.864;2023-03-01T04:59:32;99086.16;;;-5.93;61.93
75208;BME280;63795;55.684;37.864;2023-03-01T05:04:32;99085.88;;;-5.91;62.34
75208;BME280;63795;55.684;37.864;2023-03-01T05:09:33;99090.91;;;-5.85;62.49
75208;BME280;63795;55.684;37.864;2023-03-01T05:14:33;99092.19;;;-5.82;62.20
75208;BME280;63795;55.684;37.864;2023-03-01T05:19:34;99103.25;;;-5.74;62.52
75208;BME280;63795;55.684;37.864;2023-03-01T05:24:35;99113.47;;;-5.74;62.35
75208;BME280;63795;55.684;37.864;2023-03-01T05:29:36;99118.19;;;-5.83;62.28
75208;BME280;63795;55.684;37.864;2023-03-01T05:34:36;99121.84;;;-5.57;62.52
75208;BME280;63795;55.684;37.864;2023-03-01T05:39:37;99131.28;;;-4.68;60.99
75208;BME280;63795;55.684;37.864;2023-03-01T05:44:37;99135.56;;;-3.90;60.01
75208;BME280;63795;55.684;37.864;2023-03-01T05:49:38;99130.66;;;-3.38;57.20
75208;BME280;63795;55.684;37.864;2023-03-01T05:54:39;99139.09;;;-3.72;57.68
75208;BME280;63795;55.684;37.864;2023-03-01T05:59:39;99146.50;;;-3.93;59.47
75208;BME280;63795;55.684;37.864;2023-03-01T06:04:40;99136.59;;;-4.11;59.24
75208;BME280;63795;55.684;37.864;2023-03-01T06:09:40;99142.63;;;-4.26;59.67
75208;BME280;63795;55.684;37.864;2023-03-01T06:14:41;99139.91;;;-4.35;59.75
75208;BME280;63795;55.684;37.864;2023-03-01T06:19:41;99149.81;;;-4.34;59.51
75208;BME280;63795;55.684;37.864;2023-03-01T06:24:41;99151.09;;;-4.32;60.27
75208;BME280;63795;55.684;37.864;2023-03-01T06:29:42;99161.53;;;-4.46;59.84
75208;BME280;63795;55.684;37.864;2023-03-01T06:34:42;99164.44;;;-4.42;60.41
75208;BME280;63795;55.684;37.864;2023-03-01T06:39:43;99151.41;;;-4.24;60.01
75208;BME280;63795;55.684;37.864;2023-03-01T06:44:44;99170.72;;;-3.27;59.30
75208;BME280;63795;55.684;37.864;2023-03-01T06:49:44;99158.22;;;-2.83;57.22
75208;BME280;63795;55.684;37.864;2023-03-01T06:54:44;99165.06;;;-2.81;56.67
75208;BME280;63795;55.684;37.864;2023-03-01T06:59:46;99174.09;;;-2.92;56.56
75208;BME280;63795;55.684;37.864;2023-03-01T07:04:49;99173.66;;;-2.74;56.42
75208;BME280;63795;55.684;37.864;2023-03-01T07:09:50;99190.06;;;-2.39;54.87
75208;BME280;63795;55.684;37.864;2023-03-01T07:14:50;99193.16;;;-2.00;55.13
75208;BME280;63795;55.684;37.864;2023-03-01T07:19:51;99188.16;;;-2.06;53.87
75208;BME280;63795;55.684;37.864;2023-03-01T07:24:51;99192.31;;;-2.33;56.02
75208;BME280;63795;55.684;37.864;2023-03-01T07:29:51;99202.84;;;-2.47;56.09
75208;BME280;63795;55.684;37.864;2023-03-01T07:34:52;99200.41;;;-2.48;56.42
75208;BME280;63795;55.684;37.864;2023-03-01T07:39:53;99207.28;;;-2.54;55.81
75208;BME280;63795;55.684;37.864;2023-03-01T07:44:53;99202.94;;;-2.85;55.96
75208;BME280;63795;55.684;37.864;2023-03-01T07:49:54;99200.81;;;-2.88;56.47
75208;BME280;63795;55.684;37.864;2023-03-01T07:54:54;99199.75;;;-3.04;56.28
75208;BME280;63795;55.684;37.864;2023-03-01T07:59:55;99204.44;;;-3.25;56.42
75208;BME280;63795;55.684;37.864;2023-03-01T08:04:55;99205.81;;;-3.48;57.25
75208;BME280;63795;55.684;37.864;2023-03-01T08:09:56;99213.81;;;-3.55;56.99
75208;BME280;63795;55.684;37.864;2023-03-01T08:14:56;99210.72;;;-3.54;57.14
75208;BME280;63795;55.684;37.864;2023-03-01T08:19:57;99210.25;;;-3.64;57.29
75208;BME280;63795;55.684;37.864;2023-03-01T08:24:57;99213.03;;;-3.64;57.83
75208;BME280;63795;55.684;37.864;2023-03-01T08:29:58;99207.75;;;-3.49;57.99
75208;BME280;63795;55.684;37.864;2023-03-01T08:34:58;99205.66;;;-3.43;57.99
75208;BME280;63795;55.684;37.864;2023-03-01T08:39:59;99213.75;;;-3.38;58.50
75208;BME280;63795;55.684;37.864;2023-03-01T08:45:00;99232.16;;;-3.33;58.79
75208;BME280;63795;55.684;37.864;2023-03-01T08:50:00;99232.16;;;-3.25;58.46
75208;BME280;63795;55.684;37.864;2023-03-01T08:55:01;99233.59;;;-3.19;59.12
75208;BME280;63795;55.684;37.864;2023-03-01T09:00:02;99237.63;;;-3.16;59.23
75208;BME280;63795;55.684;37.864;2023-03-01T09:05:03;99239.41;;;-3.12;59.16
75208;BME280;63795;55.684;37.864;2023-03-01T09:10:04;99233.72;;;-3.15;59.18
75208;BME280;63795;55.684;37.864;2023-03-01T09:15:05;99232.25;;;-3.13;59.12
75208;BME280;63795;55.684;37.864;2023-03-01T09:20:06;99256.03;;;-3.03;59.87
75208;BME280;63795;55.684;37.864;2023-03-01T09:25:07;99239.50;;;-2.91;59.37
75208;BME280;63795;55.684;37.864;2023-03-01T09:30:08;99245.56;;;-2.98;58.88
75208;BME280;63795;55.684;37.864;2023-03-01T09:35:09;99226.63;;;-2.96;58.11
75208;BME280;63795;55.684;37.864;2023-03-01T09:40:19;99235.16;;;-2.72;57.98
75208;BME280;63795;55.684;37.864;2023-03-01T09:45:27;99242.19;;;-1.50;56.66
75208;BME280;63795;55.684;37.864;2023-03-01T09:50:39;99244.47;;;-0.11;55.74
75208;BME280;63795;55.684;37.864;2023-03-01T09:55:55;99236.66;;;0.62;49.89
75208;BME280;63795;55.684;37.864;2023-03-01T10:01:01;99235.03;;;1.20;50.73
75208;BME280;63795;55.684;37.864;2023-03-01T10:06:22;99233.41;;;1.85;51.00
75208;BME280;63795;55.684;37.864;2023-03-01T10:11:31;99255.28;;;2.75;46.35
75208;BME280;63795;55.684;37.864;2023-03-01T10:21:43;99255.09;;;1.91;47.75
75208;BME280;63795;55.684;37.864;2023-03-01T10:27:00;99263.22;;;1.46;45.42
75208;BME280;63795;55.684;37.864;2023-03-01T10:32:04;99258.91;;;0.46;47.90
75208;BME280;63795;55.684;37.864;2023-03-01T10:37:14;99259.78;;;-0.05;48.16
75208;BME280;63795;55.684;37.864;2023-03-01T10:42:32;99278.59;;;-0.99;50.00
75208;BME280;63795;55.684;37.864;2023-03-01T10:47:33;99269.97;;;-1.18;51.63
75208;BME280;63795;55.684;37.864;2023-03-01T10:52:37;99288.94;;;-1.20;52.69
75208;BME280;63795;55.684;37.864;2023-03-01T10:57:40;99273.75;;;-1.34;52.45
75208;BME280;63795;55.684;37.864;2023-03-01T11:02:41;99272.06;;;-1.47;52.48
75208;BME280;63795;55.684;37.864;2023-03-01T11:07:48;99275.59;;;-1.38;52.16
75208;BME280;63795;55.684;37.864;2023-03-01T11:12:51;99275.59;;;-1.38;52.41
75208;BME280;63795;55.684;37.864;2023-03-01T11:17:52;99281.69;;;-1.45;53.06
75208;BME280;63795;55.684;37.864;2023-03-01T11:23:15;99281.31;;;-1.55;51.50
75208;BME280;63795;55.684;37.864;2023-03-01T11:28:18;99282.16;;;-1.43;52.57
75208;BME280;63795;55.684;37.864;2023-03-01T11:38:27;99274.25;;;-1.53;52.03
75208;BME280;63795;55.684;37.864;2023-03-01T12:04:30;99283.75;;;-0.40;49.32
75208;BME280;63795;55.684;37.864;2023-03-01T12:31:00;99298.03;;;0.10;48.73
75208;BME280;63795;55.684;37.864;2023-03-01T12:52:46;99281.94;;;-1.05;49.05
75208;BME280;63795;55.684;37.864;2023-03-01T13:13:36;99285.53;;;-1.05;49.07
75208;BME280;63795;55.684;37.864;2023-03-01T13:18:37;99274.78;;;-1.39;49.65
75208;BME280;63795;55.684;37.864;2023-03-01T13:23:38;99276.34;;;-1.50;49.84
75208;BME280;63795;55.684;37.864;2023-03-01T13:38:57;99267.63;;;-1.60;50.93
75208;BME280;63795;55.684;37.864;2023-03-01T13:43:58;99267.84;;;-1.65;50.72
75208;BME280;63795;55.684;37.864;2023-03-01T13:48:58;99259.31;;;-1.81;50.88
75208;BME280;63795;55.684;37.864;2023-03-01T13:53:59;99262.09;;;-1.81;51.26
75208;BME280;63795;55.684;37.864;2023-03-01T13:59:03;99271.31;;;-1.89;51.87
75208;BME280;63795;55.684;37.864;2023-03-01T14:04:26;99257.06;;;-1.88;52.19
75208;BME280;63795;55.684;37.864;2023-03-01T14:09:28;99270.63;;;-2.07;52.13
75208;BME280;63795;55.684;37.864;2023-03-01T14:20:02;99253.28;;;-2.24;52.42
75208;BME280;63795;55.684;37.864;2023-03-01T14:30:37;99254.78;;;-2.27;53.46
75208;BME280;63795;55.684;37.864;2023-03-01T14:35:38;99268.03;;;-2.32;52.85
75208;BME280;63795;55.684;37.864;2023-03-01T14:40:39;99249.94;;;-2.38;52.89
75208;BME280;63795;55.684;37.864;2023-03-01T14:45:39;99247.50;;;-2.40;53.12
75208;BME280;63795;55.684;37.864;2023-03-01T14:50:41;99246.69;;;-2.40;53.74
75208;BME280;63795;55.684;37.864;2023-03-01T14:55:46;99258.28;;;-2.38;53.55
75208;BME280;63795;55.684;37.864;2023-03-01T15:00:56;99257.53;;;-2.47;53.44
75208;BME280;63795;55.684;37.864;2023-03-01T15:05:58;99256.19;;;-2.41;53.59
75208;BME280;63795;55.684;37.864;2023-03-01T15:11:15;99249.28;;;-2.35;54.07
75208;BME280;63795;55.684;37.864;2023-03-01T15:16:29;99251.09;;;-2.39;54.35
75208;BME280;63795;55.684;37.864;2023-03-01T15:21:33;99246.03;;;-2.37;54.67
75208;BME280;63795;55.684;37.864;2023-03-01T15:26:44;99241.97;;;-2.40;55.08
75208;BME280;63795;55.684;37.864;2023-03-01T15:32:22;99249.00;;;-2.42;55.18
75208;BME280;63795;55.684;37.864;2023-03-01T15:37:45;99249.84;;;-2.50;55.49
75208;BME280;63795;55.684;37.864;2023-03-01T15:42:47;99236.69;;;-2.53;55.68
75208;BME280;63795;55.684;37.864;2023-03-01T15:47:49;99246.19;;;-2.63;56.87
75208;BME280;63795;55.684;37.864;2023-03-01T15:52:51;99241.50;;;-2.71;56.81
75208;BME280;63795;55.684;37.864;2023-03-01T15:58:31;99246.94;;;-2.75;57.77
75208;BME280;63795;55.684;37.864;2023-03-01T16:03:24;99238.59;;;-2.75;58.14
75208;BME280;63795;55.684;37.864;2023-03-01T16:08:25;99245.50;;;-2.81;58.02
75208;BME280;63795;55.684;37.864;2023-03-01T16:13:26;99237.66;;;-2.79;57.71
75208;BME280;63795;55.684;37.864;2023-03-01T16:18:28;99237.16;;;-2.81;57.11
75208;BME280;63795;55.684;37.864;2023-03-01T16:23:28;99236.00;;;-2.80;56.86
75208;BME280;63795;55.684;37.864;2023-03-01T16:28:28;99238.25;;;-2.73;57.42
75208;BME280;63795;55.684;37.864;2023-03-01T16:33:29;99235.28;;;-2.68;56.75
75208;BME280;63795;55.684;37.864;2023-03-01T16:38:31;99235.97;;;-2.71;56.42
75208;BME280;63795;55.684;37.864;2023-03-01T16:43:32;99235.75;;;-2.66;55.91
75208;BME280;63795;55.684;37.864;2023-03-01T16:48:32;99229.94;;;-2.73;55.59
75208;BME280;63795;55.684;37.864;2023-03-01T16:53:34;99225.22;;;-2.73;55.10
75208;BME280;63795;55.684;37.864;2023-03-01T16:58:37;99223.88;;;-2.67;55.45
75208;BME280;63795;55.684;37.864;2023-03-01T17:03:38;99219.94;;;-2.66;55.71
75208;BME280;63795;55.684;37.864;2023-03-01T17:08:39;99209.72;;;-2.74;56.06
75208;BME280;63795;55.684;37.864;2023-03-01T17:13:40;99215.13;;;-2.77;56.68
75208;BME280;63795;55.684;37.864;2023-03-01T17:18:41;99200.78;;;-2.79;57.27
75208;BME280;63795;55.684;37.864;2023-03-01T17:23:44;99208.28;;;-2.80;57.29
75208;BME280;63795;55.684;37.864;2023-03-01T17:28:45;99205.72;;;-2.85;57.39
75208;BME280;63795;55.684;37.864;2023-03-01T17:33:50;99200.34;;;-2.90;58.12
75208;BME280;63795;55.684;37.864;2023-03-01T17:38:51;99206.22;;;-2.91;58.20
75208;BME280;63795;55.684;37.864;2023-03-01T17:43:51;99193.66;;;-2.89;58.47
75208;BME280;63795;55.684;37.864;2023-03-01T17:48:52;99188.78;;;-2.92;58.38
75208;BME280;63795;55.684;37.864;2023-03-01T17:53:53;99198.25;;;-2.93;58.38
75208;BME280;63795;55.684;37.864;2023-03-01T17:58:54;99188.03;;;-3.01;58.46
75208;BME280;63795;55.684;37.864;2023-03-01T18:03:55;99177.41;;;-2.99;58.44
75208;BME280;63795;55.684;37.864;2023-03-01T18:08:55;99174.44;;;-2.94;58.78
75208;BME280;63795;55.684;37.864;2023-03-01T18:13:56;99175.44;;;-2.98;58.56
75208;BME280;63795;55.684;37.864;2023-03-01T18:18:56;99175.81;;;-3.08;59.02
75208;BME280;63795;55.684;37.864;2023-03-01T18:23:57;99174.19;;;-3.09;60.35
75208;BME280;63795;55.684;37.864;2023-03-01T18:29:01;99158.94;;;-3.24;60.65
75208;BME280;63795;55.684;37.864;2023-03-01T18:34:03;99174.38;;;-3.14;60.93
75208;BME280;63795;55.684;37.864;2023-03-01T18:39:05;99169.00;;;-3.11;60.86
75208;BME280;63795;55.684;37.864;2023-03-01T18:44:06;99168.53;;;-3.13;61.35
75208;BME280;63795;55.684;37.864;2023-03-01T18:49:07;99176.50;;;-3.11;60.80
75208;BME280;63795;55.684;37.864;2023-03-01T18:54:10;99174.69;;;-3.07;61.06
75208;BME280;63795;55.684;37.864;2023-03-01T18:59:11;99178.91;;;-3.10;61.16
75208;BME280;63795;55.684;37.864;2023-03-01T19:04:12;99167.34;;;-3.12;60.80
75208;BME280;63795;55.684;37.864;2023-03-01T19:09:12;99156.13;;;-3.15;61.85
75208;BME280;63795;55.684;37.864;2023-03-01T19:14:14;99157.56;;;-3.09;61.26
75208;BME280;63795;55.684;37.864;2023-03-01T19:19:15;99155.63;;;-3.09;62.04
75208;BME280;63795;55.684;37.864;2023-03-01T19:24:16;99150.72;;;-3.12;61.71
75208;BME280;63795;55.684;37.864;2023-03-01T19:29:17;99148.44;;;-3.10;62.45
75208;BME280;63795;55.684;37.864;2023-03-01T19:34:17;99147.13;;;-3.12;63.21
75208;BME280;63795;55.684;37.864;2023-03-01T19:39:18;99134.44;;;-3.13;61.91
75208;BME280;63795;55.684;37.864;2023-03-01T19:44:19;99139.66;;;-3.12;62.08
75208;BME280;63795;55.684;37.864;2023-03-01T19:49:24;99138.34;;;-3.14;62.32
75208;BME280;63795;55.684;37.864;2023-03-01T19:54:26;99131.53;;;-3.17;62.17
75208;BME280;63795;55.684;37.864;2023-03-01T19:59:26;99142.63;;;-3.17;62.68
75208;BME280;63795;55.684;37.864;2023-03-01T20:04:27;99136.59;;;-3.19;63.31
75208;BME280;63795;55.684;37.864;2023-03-01T20:09:27;99129.06;;;-3.18;62.97
75208;BME280;63795;55.684;37.864;2023-03-01T20:14:28;99132.19;;;-3.20;63.16
75208;BME280;63795;55.684;37.864;2023-03-01T20:19:28;99131.09;;;-3.27;63.49
75208;BME280;63795;55.684;37.864;2023-03-01T20:24:29;99123.25;;;-3.25;63.12
75208;BME280;63795;55.684;37.864;2023-03-01T20:29:32;99113.66;;;-3.28;64.59
75208;BME280;63795;55.684;37.864;2023-03-01T20:34:33;99112.19;;;-3.25;64.28
75208;BME280;63795;55.684;37.864;2023-03-01T20:39:35;99100.28;;;-3.26;63.96
75208;BME280;63795;55.684;37.864;2023-03-01T20:44:35;99104.00;;;-3.22;63.41
75208;BME280;63795;55.684;37.864;2023-03-01T20:49:42;99104.31;;;-3.15;64.82
75208;BME280;63795;55.684;37.864;2023-03-01T20:54:42;99104.78;;;-3.13;63.87
75208;BME280;63795;55.684;37.864;2023-03-01T20:59:43;99095.16;;;-3.15;66.56
75208;BME280;63795;55.684;37.864;2023-03-01T21:04:43;99099.25;;;-3.13;67.21
75208;BME280;63795;55.684;37.864;2023-03-01T21:09:44;99100.84;;;-3.12;68.12
75208;BME280;63795;55.684;37.864;2023-03-01T21:14:44;99095.81;;;-3.18;67.06
75208;BME280;63795;55.684;37.864;2023-03-01T21:19:46;99103.53;;;-3.24;70.27
75208;BME280;63795;55.684;37.864;2023-03-01T21:24:46;99105.22;;;-3.31;68.04
75208;BME280;63795;55.684;37.864;2023-03-01T21:29:48;99107.84;;;-3.35;69.54
75208;BME280;63795;55.684;37.864;2023-03-01T21:34:48;99108.50;;;-3.38;70.76
75208;BME280;63795;55.684;37.864;2023-03-01T21:39:49;99098.59;;;-3.48;70.02
75208;BME280;63795;55.684;37.864;2023-03-01T21:44:49;99112.91;;;-3.37;68.87
75208;BME280;63795;55.684;37.864;2023-03-01T21:49:50;99112.69;;;-3.32;68.35
75208;BME280;63795;55.684;37.864;2023-03-01T21:54:50;99104.91;;;-3.38;68.94
75208;BME280;63795;55.684;37.864;2023-03-01T21:59:51;99096.44;;;-3.42;71.24
75208;BME280;63795;55.684;37.864;2023-03-01T22:04:52;99104.13;;;-3.39;71.17
75208;BME280;63795;55.684;37.864;2023-03-01T22:09:56;99100.66;;;-3.36;71.02
75208;BME280;63795;55.684;37.864;2023-03-01T22:14:57;99101.63;;;-3.32;68.63
75208;BME280;63795;55.684;37.864;2023-03-01T22:19:57;99106.03;;;-3.31;70.17
75208;BME280;63795;55.684;37.864;2023-03-01T22:24:58;99103.91;;;-3.34;71.56
75208;BME280;63795;55.684;37.864;2023-03-01T22:29:58;99095.59;;;-3.34;71.14
75208;BME280;63795;55.684;37.864;2023-03-01T22:34:59;99096.75;;;-3.35;70.21
75208;BME280;63795;55.684;37.864;2023-03-01T22:39:59;99102.28;;;-3.35;70.66
75208;BME280;63795;55.684;37.864;2023-03-01T22:45:00;99102.59;;;-3.36;70.71
75208;BME280;63795;55.684;37.864;2023-03-01T22:50:00;99111.88;;;-3.32;71.02
75208;BME280;63795;55.684;37.864;2023-03-01T22:55:01;99114.00;;;-3.29;71.62
75208;BME280;63795;55.684;37.864;2023-03-01T23:00:06;99122.44;;;-3.26;71.28
75208;BME280;63795;55.684;37.864;2023-03-01T23:05:14;99117.19;;;-3.19;71.64
75208;BME280;63795;55.684;37.864;2023-03-01T23:10:18;99106.25;;;-3.15;71.54
75208;BME280;63795;55.684;37.864;2023-03-01T23:15:18;99117.13;;;-3.10;71.22
75208;BME280;63795;55.684;37.864;2023-03-01T23:20:19;99129.84;;;-3.09;70.60
75208;BME280;63795;55.684;37.864;2023-03-01T23:25:20;99143.00;;;-2.98;71.34
75208;BME280;63795;55.684;37.864;2023-03-01T23:30:21;99126.84;;;-2.96;70.86
75208;BME280;63795;55.684;37.864;2023-03-01T23:35:21;99122.94;;;-2.95;71.29
75208;BME280;63795;55.684;37.864;2023-03-01T23:40:22;99130.56;;;-2.92;70.63
75208;BME280;63795;55.684;37.864;2023-03-01T23:45:22;99122.75;;;-2.98;71.26
75208;BME280;63795;55.684;37.864;2023-03-01T23:50:22;99115.31;;;-3.06;71.71
75208;BME280;63795;55.684;37.864;2023-03-01T23:55:24;99103.91;;;-3.05;70.91
